EHRDEHEH

Guest
Details From EHRD - Rotterdam
To EHEH - Eindhoven
Flight Number -
Tags Generated
Created
Modified
Stats Distance 46 nm / 86 km
Max Altitude 0 ft / 0 m
Waypoints 2
Social Downloads 13
Likes 0
Share VATSIM

Download

Looking for another format? Having issues loading an existing format? Contact us
Advertisement - Login to hide

Notes

Generated

Route

EHRD EHEH

ID Type Via Altitude Latitude Longitude Leg Dist Tot Dist Heading (true) Name
O EHRD APT - 0 ft / 0 m 51.95209˚ 4.42824˚ - 0 nm - -
O EHEH APT - 0 ft / 0 m 51.43909˚ 5.36214˚ 46 nm 46 nm 131° / 132° -

Altitude Profile

Advertisement - Login to hide

EHRD

Details ICAO EHRD (RTM)
Name Rotterdam The Hague
Region Netherlands
Timezone Europe/Amsterdam (UTC+1.0)
Stats Elevation -15 ft / -5 m (AMSL)
Location 51.957468° 4.441662°
Runways 1
Magnetic Variation 1.049° E

METAR

EHRD 181425Z AUTO 34010KT 300V020 9999 BKN027 OVC030 08/05 Q1026 NOSIG

Decode

TAF

TAF TAF EHRD 181127Z 1812/1918 35011KT 9999 SCT020 BECMG 1815/1818 31006KT BECMG 1905/1908 26007KT PROB40 TEMPO 1905/1912 6000 -RADZ BKN018 BECMG 1913/1916 BKN008

Decode

Departure Runways

ID Width Length Bearing (true) Bearing (mag) Surface Threshold Offset Overrun Length
06 148 ft / 45 m 7,201 ft / 2,195 m 56.93° 55.88° Asphalt 656 ft / 200 m 0 ft / 0 m
24 148 ft / 45 m 7,201 ft / 2,195 m 236.95° 235.90° Asphalt 656 ft / 200 m 0 ft / 0 m

EHEH

Details ICAO EHEH (EIN)
Name Eindhoven
Region Netherlands
Timezone Europe/Amsterdam (UTC+1.0)
Stats Elevation 74 ft / 23 m (AMSL)
Location 51.450133° 5.374513°
Runways 1
Magnetic Variation 1.373° E

METAR

EHEH 181443Z AUTO 34008KT 300V030 9999 FEW008 SCT024 BKN028 07/06 Q1025 WHT 33008KT 9999 BKN020 BKN025 BECMG SCT015 BKN020

Decode

TAF

TAF AMD EHEH 181148Z 1812/1918 34012KT 9999 SCT015 BKN020 TEMPO 1813/1815 3500 -DZ SCT010 BKN015 BECMG 1814/1816 BKN022 BECMG 1819/1821 31004KT PROB30 TEMPO 1900/1905 4000 BR SCT005 BECMG 1905/1907 25004KT BECMG 1912/1914 4000 BR SCT008 BKN010 PROB30 TEMPO 1913/1918 2000 BR SCT004 BKN007 OVC010

Decode

Destination Runways

ID Width Length Bearing (true) Bearing (mag) Surface Threshold Offset Overrun Length
03 148 ft / 45 m 9,832 ft / 2,997 m 34.92° 33.55° Asphalt 821 ft / 250 m 0 ft / 0 m
21 148 ft / 45 m 9,832 ft / 2,997 m 214.94° 213.57° Asphalt 821 ft / 250 m 0 ft / 0 m

Approach Navaids

Runway Type Ident Frequency Range Bearing (true) Bearing (mag) Slope Elevation
03 Localiser EHZ 109.75 MHz 18 nm / 33 km 34.95° 33.58° - 74 ft / 23 m (AMSL)
03 Glidescope EHZ 109.75 MHz 15 nm / 28 km 34.95° 33.58° 3.00° 74 ft / 23 m (AMSL)
03 DME EHZ 109.75 MHz 18 nm / 33 km - - - 74 ft / 23 m (AMSL)
21 Localiser EHO 109.75 MHz 18 nm / 33 km 214.92° 213.55° - 74 ft / 23 m (AMSL)
21 Glidescope EHO 109.75 MHz 15 nm / 28 km 214.92° 213.55° 3.00° 74 ft / 23 m (AMSL)
21 DME EHO 109.75 MHz 18 nm / 33 km - - - 74 ft / 23 m (AMSL)

Popular Alternatives